Time;durP1;ratioP1;P1;durP2;ratioP2;P2;SDS_P1;SDS_P2;PMS_P1;PMS_P2;Temp;Humidity;BMP_temperature;BMP_pressure;BME280_temperature;BME280_humidity;BME280_pressure;Samples;Min_cycle;Max_cycle;Signal;HPM_P1;HPM_P2
2022/06/01 00:00:20;;;;;;;;;;;;;;;10.48;100.00;101319.41;2613289;31;19954;-60
2022/06/01 00:02:48;;;;;;;;;;;;;;;10.50;100.00;101325.53;2613074;36;19954;-59
2022/06/01 00:05:17;;;;;;;;;;;;;;;10.48;100.00;101330.19;2612560;36;19962;-61
2022/06/01 00:07:45;;;;;;;;;;;;;;;10.46;100.00;101329.44;2612598;36;19978;-60
2022/06/01 00:10:13;;;;;;;;;;;;;;;10.47;100.00;101320.41;2612926;36;19947;-59
2022/06/01 00:12:41;;;;;;;;;;;;;;;10.48;100.00;101322.13;2613876;36;20388;-61
2022/06/01 00:15:10;;;;;;;;;;;;;;;10.55;100.00;101321.63;2613029;31;19953;-60
2022/06/01 00:17:41;;;;;;;;;;;;;;;10.59;100.00;101326.63;2613614;36;20360;-60
2022/06/01 00:20:10;;;;;;;;;;;;;;;10.54;100.00;101325.28;2612887;36;20351;-60
2022/06/01 00:22:38;;;;;;;;;;;;;;;10.59;100.00;101328.47;2613419;36;19954;-58
2022/06/01 00:25:07;;;;;;;;;;;;;;;10.61;100.00;101321.09;2612913;31;19973;-59
2022/06/01 00:27:36;;;;;;;;;;;;;;;10.57;100.00;101331.28;2613313;36;19981;-59
2022/06/01 00:30:04;;;;;;;;;;;;;;;10.66;100.00;101324.28;2613362;31;19951;-60
2022/06/01 00:32:33;;;;;;;;;;;;;;;10.58;100.00;101329.44;2612946;36;19951;-62
2022/06/01 00:35:04;;;;;;;;;;;;;;;10.66;100.00;101329.69;2612254;36;19957;-59
2022/06/01 00:37:32;;;;;;;;;;;;;;;10.65;100.00;101333.34;2612430;31;20027;-60
2022/06/01 00:40:01;;;;;;;;;;;;;;;10.58;100.00;101332.97;2613536;36;19950;-60
2022/06/01 00:42:31;;;;;;;;;;;;;;;10.65;100.00;101338.72;2613840;36;19982;-60
2022/06/01 00:44:59;;;;;;;;;;;;;;;10.71;100.00;101334.69;2613722;36;19966;-62
2022/06/01 00:47:28;;;;;;;;;;;;;;;10.71;100.00;101334.69;2613613;36;20527;-59
2022/06/01 00:49:59;;;;;;;;;;;;;;;10.74;100.00;101339.81;2613731;36;19951;-62
2022/06/01 00:52:38;;;;;;;;;;;;;;;10.79;100.00;101341.16;2613377;36;19985;-61
2022/06/01 00:55:08;;;;;;;;;;;;;;;10.70;100.00;101336.50;2613767;36;19946;-57
2022/06/01 00:57:36;;;;;;;;;;;;;;;10.70;100.00;101336.50;2614046;31;19977;-59
2022/06/01 01:00:06;;;;;;;;;;;;;;;10.67;100.00;101331.38;2613075;36;19950;-62
2022/06/01 01:02:34;;;;;;;;;;;;;;;10.62;100.00;101330.91;2612840;36;19950;-61
2022/06/01 01:05:04;;;;;;;;;;;;;;;10.67;100.00;101336.75;2613879;36;19954;-59
2022/06/01 01:07:35;;;;;;;;;;;;;;;10.61;100.00;101331.88;2613876;36;20341;-58
2022/06/01 01:10:04;;;;;;;;;;;;;;;10.60;100.00;101324.78;2613695;31;19946;-59
2022/06/01 01:12:56;;;;;;;;;;;;;;;10.62;100.00;101323.66;2614043;36;20333;-56
2022/06/01 01:15:21;;;;;;;;;;;;;;;10.62;100.00;101326.38;2613566;36;19947;-56
2022/06/01 01:17:51;;;;;;;;;;;;;;;10.50;100.00;101324.69;2613779;36;19954;-57
2022/06/01 01:20:20;;;;;;;;;;;;;;;10.55;100.00;101321.63;2613899;36;20400;-57
2022/06/01 01:22:55;;;;;;;;;;;;;;;10.56;100.00;101323.34;2613871;36;20077;-57
2022/06/01 01:25:28;;;;;;;;;;;;;;;10.59;100.00;101320.38;2614311;36;20376;-57
2022/06/01 01:27:57;;;;;;;;;;;;;;;10.54;100.00;101318.06;2614176;36;20502;-56
2022/06/01 01:30:30;;;;;;;;;;;;;;;10.57;100.00;101316.94;2612713;36;19951;-56
2022/06/01 01:32:59;;;;;;;;;;;;;;;10.50;100.00;101319.28;2601647;36;20344;-56
2022/06/01 01:35:27;;;;;;;;;;;;;;;10.56;100.00;101317.94;2614121;36;19960;-56
2022/06/01 01:37:55;;;;;;;;;;;;;;;10.45;100.00;101308.91;2613018;36;19947;-57
2022/06/01 01:40:25;;;;;;;;;;;;;;;10.41;100.00;101309.25;2613208;36;19973;-56
2022/06/01 01:42:54;;;;;;;;;;;;;;;10.46;100.00;101307.06;2613493;36;19961;-56
2022/06/01 01:45:26;;;;;;;;;;;;;;;10.35;100.00;101299.88;2614045;36;19946;-57
2022/06/01 01:47:54;;;;;;;;;;;;;;;10.40;100.00;101308.41;2613399;36;19951;-56
2022/06/01 01:50:23;;;;;;;;;;;;;;;10.44;100.00;101309.88;2613049;36;19946;-55
2022/06/01 01:52:51;;;;;;;;;;;;;;;10.34;100.00;101303.53;2612595;36;19954;-54
2022/06/01 01:55:26;;;;;;;;;;;;;;;10.38;100.00;101296.94;2613878;36;19946;-56
2022/06/01 01:58:02;;;;;;;;;;;;;;;10.39;100.00;101311.22;2613682;31;19954;-56
2022/06/01 02:00:34;;;;;;;;;;;;;;;10.29;100.00;101301.19;2613257;36;19953;-57
2022/06/01 02:03:10;;;;;;;;;;;;;;;10.30;100.00;101315.47;2613967;36;19977;-57
2022/06/01 02:08:28;;;;;;;;;;;;;;;10.29;100.00;101303.88;2613139;36;20344;-56
2022/06/01 02:13:45;;;;;;;;;;;;;;;10.30;100.00;101307.41;2614142;36;20343;-57
2022/06/01 02:16:13;;;;;;;;;;;;;;;10.44;100.00;101303.66;2613330;31;19954;-57
2022/06/01 02:18:44;;;;;;;;;;;;;;;10.34;100.00;101303.53;2613100;36;19951;-57
2022/06/01 02:21:15;;;;;;;;;;;;;;;10.40;100.00;101308.41;2613878;36;19954;-56
2022/06/01 02:23:43;;;;;;;;;;;;;;;10.44;100.00;101301.81;2613176;36;19951;-57
2022/06/01 02:26:12;;;;;;;;;;;;;;;10.48;100.00;101305.97;2613811;36;19962;-57
2022/06/01 02:28:41;;;;;;;;;;;;;;;10.45;100.00;101310.72;2613686;31;19969;-61
2022/06/01 02:31:13;;;;;;;;;;;;;;;10.53;100.00;101308.28;2614328;36;20395;-58
2022/06/01 02:33:43;;;;;;;;;;;;;;;10.56;100.00;101305.34;2613209;36;19951;-59
2022/06/01 02:36:14;;;;;;;;;;;;;;;10.44;100.00;101296.44;2613908;36;19971;-57
2022/06/01 02:38:44;;;;;;;;;;;;;;;10.43;100.00;101300.09;2612593;36;19950;-57
2022/06/01 02:42:25;;;;;;;;;;;;;;;10.44;100.00;101301.81;2613282;36;19977;-58
2022/06/01 02:44:01;;;;;;;;;;;;;;;10.38;100.00;101310.38;2612655;36;20029;-59
2022/06/01 02:46:33;;;;;;;;;;;;;;;10.31;100.00;101301.06;2614867;36;19961;-58
2022/06/01 02:49:01;;;;;;;;;;;;;;;10.28;100.00;101304.00;2613600;36;19950;-58
2022/06/01 02:51:29;;;;;;;;;;;;;;;10.27;100.00;101294.22;2614073;36;19989;-57
2022/06/01 02:53:57;;;;;;;;;;;;;;;10.18;100.00;101293.09;2613048;36;19951;-59
2022/06/01 02:56:26;;;;;;;;;;;;;;;10.11;100.00;101298.09;2613997;31;19946;-57
2022/06/01 02:58:56;;;;;;;;;;;;;;;10.08;100.00;101292.97;2614088;36;19970;-58
2022/06/01 03:01:24;;;;;;;;;;;;;;;10.07;100.00;101296.66;2614742;36;20443;-59
2022/06/01 03:03:55;;;;;;;;;;;;;;;10.05;100.00;101295.91;2613144;36;19953;-57
2022/06/01 03:06:23;;;;;;;;;;;;;;;9.97;100.00;101304.59;2613506;31;19967;-57
2022/06/01 03:08:51;;;;;;;;;;;;;;;9.92;100.00;101297.88;2612236;36;19973;-60
2022/06/01 03:11:19;;;;;;;;;;;;;;;9.80;100.00;101300.56;2613052;36;19954;-59
2022/06/01 03:13:47;;;;;;;;;;;;;;;9.76;100.00;101298.22;2613256;36;19970;-60
2022/06/01 03:16:15;;;;;;;;;;;;;;;9.71;100.00;101300.41;2613074;36;19970;-59
2022/06/01 03:18:43;;;;;;;;;;;;;;;9.66;100.00;101306.16;2613288;36;19958;-58
2022/06/01 03:21:14;;;;;;;;;;;;;;;9.58;100.00;101308.56;2613321;36;19946;-60
2022/06/01 03:23:42;;;;;;;;;;;;;;;9.65;100.00;101299.06;2612834;31;19951;-59
2022/06/01 03:26:12;;;;;;;;;;;;;;;9.47;100.00;101307.56;2613471;36;20038;-58
2022/06/01 03:28:40;;;;;;;;;;;;;;;9.50;100.00;101298.41;2613554;36;20349;-59
2022/06/01 03:31:08;;;;;;;;;;;;;;;9.52;100.00;101304.53;2613449;31;19951;-57
2022/06/01 03:33:37;;;;;;;;;;;;;;;9.39;100.00;101293.88;2613183;36;19951;-59
2022/06/01 03:36:06;;;;;;;;;;;;;;;9.45;100.00;101303.28;2613110;36;19953;-59
2022/06/01 03:38:36;;;;;;;;;;;;;;;9.43;100.00;101305.22;2612877;36;20414;-59
2022/06/01 03:41:04;;;;;;;;;;;;;;;9.42;100.00;101295.47;2613198;36;20364;-59
2022/06/01 03:45:55;;;;;;;;;;;;;;;9.30;100.00;101291.88;2613454;36;19946;-58
2022/06/01 03:46:18;;;;;;;;;;;;;;;9.31;100.00;101298.13;2612921;36;19946;-59
2022/06/01 03:48:46;;;;;;;;;;;;;;;9.26;100.00;101295.75;2612854;36;19955;-59
2022/06/01 03:51:14;;;;;;;;;;;;;;;9.16;100.00;101294.75;2612788;36;19946;-58
2022/06/01 03:53:45;;;;;;;;;;;;;;;9.27;100.00;101303.69;2613155;36;19947;-58
2022/06/01 03:56:13;;;;;;;;;;;;;;;9.28;100.00;101305.44;2612601;36;20436;-58
2022/06/01 03:58:41;;;;;;;;;;;;;;;9.28;100.00;101301.91;2613744;36;20353;-59
2022/06/01 04:01:10;;;;;;;;;;;;;;;9.22;100.00;101302.38;2613274;36;20391;-58
2022/06/01 04:03:38;;;;;;;;;;;;;;;9.34;100.00;101301.41;2613499;36;19947;-58
2022/06/01 04:06:06;;;;;;;;;;;;;;;9.42;100.00;101306.19;2613579;36;19951;-57
2022/06/01 04:08:34;;;;;;;;;;;;;;;9.39;100.00;101307.31;2612362;36;20406;-59
2022/06/01 04:11:05;;;;;;;;;;;;;;;9.40;100.00;101313.53;2613420;36;20391;-58
2022/06/01 04:13:33;;;;;;;;;;;;;;;9.42;100.00;101312.44;2613458;31;19950;-58
2022/06/01 04:16:01;;;;;;;;;;;;;;;9.52;100.00;101314.44;2612340;36;19951;-58
2022/06/01 04:18:29;;;;;;;;;;;;;;;9.53;100.00;101308.09;2610218;36;19946;-59
2022/06/01 04:20:58;;;;;;;;;;;;;;;9.61;100.00;101313.69;2611575;36;19954;-58
2022/06/01 04:23:26;;;;;;;;;;;;;;;9.63;100.00;101311.78;2613625;36;19963;-58
2022/06/01 04:25:54;;;;;;;;;;;;;;;9.71;100.00;101312.00;2614556;36;20040;-57
2022/06/01 04:28:25;;;;;;;;;;;;;;;9.74;100.00;101325.22;2612213;36;20344;-57
2022/06/01 04:30:53;;;;;;;;;;;;;;;9.72;100.00;101313.75;2613291;36;19947;-58
2022/06/01 04:33:21;;;;;;;;;;;;;;;9.84;100.00;101320.00;2613799;31;19958;-57
2022/06/01 04:35:49;;;;;;;;;;;;;;;9.70;100.00;101325.56;2614376;36;19946;-60
2022/06/01 04:38:18;;;;;;;;;;;;;;;9.75;100.00;101324.25;2612929;36;20405;-59
2022/06/01 04:40:47;;;;;;;;;;;;;;;9.80;100.00;101322.06;2612977;36;20452;-58
2022/06/01 04:43:16;;;;;;;;;;;;;;;9.82;100.00;101324.63;2614405;36;19958;-59
2022/06/01 04:45:47;;;;;;;;;;;;;;;9.77;100.00;101326.81;2614419;36;19968;-60
2022/06/01 04:48:15;;;;;;;;;;;;;;;9.80;100.00;101322.06;2613805;36;19947;-60
2022/06/01 04:50:44;;;;;;;;;;;;;;;9.94;100.00;101328.19;2614068;36;19951;-58
2022/06/01 04:53:13;;;;;;;;;;;;;;;9.87;100.00;101324.28;2613101;36;19955;-58
2022/06/01 04:55:41;;;;;;;;;;;;;;;9.95;100.00;101313.75;2608757;36;19954;-58
2022/06/01 04:58:09;;;;;;;;;;;;;;;9.93;100.00;101318.41;2613769;36;19957;-58
2022/06/01 05:00:38;;;;;;;;;;;;;;;9.92;100.00;101322.94;2614178;36;19947;-58
2022/06/01 05:03:09;;;;;;;;;;;;;;;9.96;100.00;101326.22;2613234;36;20430;-59
2022/06/01 05:05:39;;;;;;;;;;;;;;;10.05;100.00;101320.13;2614076;36;19958;-58
2022/06/01 05:08:08;;;;;;;;;;;;;;;10.06;100.00;101327.22;2612590;31;19997;-58
2022/06/01 05:10:36;;;;;;;;;;;;;;;10.01;100.00;101324.03;2614007;36;19950;-58
2022/06/01 05:13:05;;;;;;;;;;;;;;;10.16;100.00;101316.59;2613732;36;19951;-59
2022/06/01 05:15:33;;;;;;;;;;;;;;;10.16;100.00;101320.13;2613764;36;20419;-57
2022/06/01 05:18:02;;;;;;;;;;;;;;;10.19;100.00;101319.03;2613489;36;19954;-58
2022/06/01 05:20:34;;;;;;;;;;;;;;;10.27;100.00;101318.41;2614325;36;19946;-60
2022/06/01 05:23:02;;;;;;;;;;;;;;;10.47;100.00;101309.63;2613011;31;20511;-59
2022/06/01 05:25:30;;;;;;;;;;;;;;;10.36;100.00;101304.25;2614167;36;20396;-58
2022/06/01 05:27:58;;;;;;;;;;;;;;;10.60;100.00;101305.94;2614061;36;19958;-58
2022/06/01 05:30:26;;;;;;;;;;;;;;;10.61;100.00;101316.56;2613647;36;20487;-58
2022/06/01 05:32:54;;;;;;;;;;;;;;;10.79;100.00;101324.13;2616471;36;19986;-59
2022/06/01 05:35:52;;;;;;;;;;;;;;;10.82;100.00;101324.75;2615358;36;19946;-58
2022/06/01 05:38:23;;;;;;;;;;;;;;;10.77;100.00;101326.09;2669573;36;20192;-58
2022/06/01 05:40:52;;;;;;;;;;;;;;;10.89;100.00;101327.78;2612922;36;19947;-57
2022/06/01 05:43:20;;;;;;;;;;;;;;;10.99;100.00;101335.94;2613949;36;19957;-57
2022/06/01 05:45:48;;;;;;;;;;;;;;;11.01;100.00;101328.59;2614375;36;19951;-58
2022/06/01 05:48:17;;;;;;;;;;;;;;;11.13;100.00;101322.19;2614004;31;19954;-57
2022/06/01 05:50:45;;;;;;;;;;;;;;;11.31;100.00;101324.34;2614203;36;19951;-58
2022/06/01 05:53:13;;;;;;;;;;;;;;;11.31;100.00;101327.88;2613555;36;19947;-59
2022/06/01 05:55:44;;;;;;;;;;;;;;;11.32;100.00;101318.81;2614647;31;19950;-58
2022/06/01 05:58:14;;;;;;;;;;;;;;;11.56;100.00;101320.41;2613828;31;19950;-58
2022/06/01 06:00:45;;;;;;;;;;;;;;;11.49;100.00;101321.91;2616001;54;20420;-59
2022/06/01 06:03:14;;;;;;;;;;;;;;;11.56;100.00;101328.50;2614769;36;20404;-59
2022/06/01 06:08:23;;;;;;;;;;;;;;;11.90;100.00;101321.03;2613522;36;19962;-61
2022/06/01 06:10:53;;;;;;;;;;;;;;;11.92;100.00;101324.47;2613564;36;20024;-57
2022/06/01 06:13:21;;;;;;;;;;;;;;;12.10;100.00;101323.84;2613615;31;20390;-58
2022/06/01 06:15:50;;;;;;;;;;;;;;;11.86;100.00;101329.53;2613723;31;19955;-57
2022/06/01 06:18:18;;;;;;;;;;;;;;;11.86;100.00;101335.75;2613430;36;19957;-58
2022/06/01 06:20:46;;;;;;;;;;;;;;;11.86;100.00;101338.47;2612886;36;19989;-61
2022/06/01 06:23:15;;;;;;;;;;;;;;;11.90;100.00;101331.81;2612783;36;19950;-59
2022/06/01 06:25:43;;;;;;;;;;;;;;;12.08;100.00;101333.94;2612724;36;19950;-59
2022/06/01 06:28:14;;;;;;;;;;;;;;;12.31;100.00;101340.00;2613327;36;19946;-62
2022/06/01 06:30:45;;;;;;;;;;;;;;;12.53;100.00;101338.09;2613852;31;20463;-60
2022/06/01 06:33:13;;;;;;;;;;;;;;;12.57;100.00;101335.00;2612716;31;19977;-59
2022/06/01 06:35:41;;;;;;;;;;;;;;;12.79;100.00;101351.94;2612710;36;20311;-59
2022/06/01 06:38:09;;;;;;;;;;;;;;;12.85;100.00;101347.84;2612034;36;19947;-58
2022/06/01 06:40:37;;;;;;;;;;;;;;;12.79;100.00;101346.53;2613034;36;19951;-61
2022/06/01 06:43:06;;;;;;;;;;;;;;;12.61;100.00;101344.50;2612987;31;20455;-60
2022/06/01 06:45:36;;;;;;;;;;;;;;;12.89;100.00;101344.72;2614749;31;20353;-60
2022/06/01 06:48:05;;;;;;;;;;;;;;;13.20;100.00;101349.19;2612675;31;20763;-57
2022/06/01 06:50:33;;;;;;;;;;;;;;;12.83;100.00;101342.59;2614086;36;19977;-59
2022/06/01 06:53:01;;;;;;;;;;;;;;;12.52;100.00;101352.59;2612839;36;19951;-58
2022/06/01 06:55:29;;;;;;;;;;;;;;;12.51;100.00;101354.41;2613606;36;20440;-59
2022/06/01 06:57:57;;;;;;;;;;;;;;;12.29;100.00;101363.56;2613432;36;19958;-58
2022/06/01 07:00:25;;;;;;;;;;;;;;;12.23;100.00;101370.38;2613493;31;19946;-57
2022/06/01 07:02:56;;;;;;;;;;;;;;;12.19;100.00;101362.66;2613702;36;19957;-57
2022/06/01 07:08:05;;;;;;;;;;;;;;;12.58;100.00;101374.50;2613202;31;19946;-61
2022/06/01 07:10:33;;;;;;;;;;;;;;;12.95;100.00;101371.19;2613277;36;19946;-57
2022/06/01 07:13:01;;;;;;;;;;;;;;;13.29;100.00;101376.22;2606426;36;19981;-59
2022/06/01 07:15:29;;;;;;;;;;;;;;;13.56;100.00;101374.69;2614037;36;19962;-59
2022/06/01 07:18:00;;;;;;;;;;;;;;;13.75;100.00;101372.94;2612849;36;20475;-59
2022/06/01 07:20:28;;;;;;;;;;;;;;;13.65;100.00;101371.13;2613502;36;19953;-61
2022/06/01 07:22:57;;;;;;;;;;;;;;;13.87;100.00;101373.66;2613470;36;20413;-62
2022/06/01 07:25:25;;;;;;;;;;;;;;;13.91;100.00;101377.78;2612703;36;19954;-61
2022/06/01 07:27:54;;;;;;;;;;;;;;;14.03;100.00;101382.03;2614125;36;19958;-59
2022/06/01 07:30:22;;;;;;;;;;;;;;;14.56;100.00;101367.03;2613547;36;20041;-58
2022/06/01 07:32:51;;;;;;;;;;;;;;;14.36;100.00;101369.81;2613618;36;20361;-59
2022/06/01 07:35:21;;;;;;;;;;;;;;;14.18;100.00;101371.59;2613426;31;19958;-60
2022/06/01 07:43:11;;;;;;;;;;;;;;;15.44;100.00;101373.78;2614056;36;19991;-58
2022/06/01 07:45:41;;;;;;;;;;;;;;;15.27;100.00;101370.91;2613123;36;19950;-59
2022/06/01 07:48:09;;;;;;;;;;;;;;;14.74;100.00;101368.94;2612544;31;19946;-59
2022/06/01 07:50:40;;;;;;;;;;;;;;;15.09;100.00;101372.72;2613509;31;20444;-59
2022/06/01 07:53:09;;;;;;;;;;;;;;;15.56;100.00;101361.66;2612873;36;19953;-62
2022/06/01 07:55:38;;;;;;;;;;;;;;;15.54;100.00;101355.53;2613457;36;19954;-59
2022/06/01 07:58:06;;;;;;;;;;;;;;;15.52;100.00;101357.56;2612596;36;20431;-61
2022/06/01 08:00:34;;;;;;;;;;;;;;;15.10;100.00;101364.44;2613644;31;19950;-59
2022/06/01 08:03:03;;;;;;;;;;;;;;;14.96;100.00;101357.72;2614190;36;20347;-58
2022/06/01 08:05:33;;;;;;;;;;;;;;;15.75;100.00;101358.78;2613526;36;19977;-59
2022/06/01 08:08:04;;;;;;;;;;;;;;;15.92;100.00;101358.94;2613237;31;20486;-58
2022/06/01 08:10:32;;;;;;;;;;;;;;;15.91;100.00;101354.50;2613017;36;19962;-58
2022/06/01 08:13:09;;;;;;;;;;;;;;;16.00;100.00;101353.53;2613357;36;19954;-59
2022/06/01 08:15:39;;;;;;;;;;;;;;;15.47;100.00;101349.88;2613161;36;19983;-62
2022/06/01 08:18:07;;;;;;;;;;;;;;;15.33;100.00;101355.88;2613241;36;19947;-62
2022/06/01 08:20:35;;;;;;;;;;;;;;;15.09;100.00;101353.75;2613614;36;19981;-60
2022/06/01 08:23:07;;;;;;;;;;;;;;;14.72;100.00;101358.25;2612927;36;19953;-61
2022/06/01 08:25:43;;;;;;;;;;;;;;;14.53;100.00;101359.19;2613779;36;19946;-61
2022/06/01 08:28:11;;;;;;;;;;;;;;;15.27;100.00;101360.06;2612660;36;19950;-61
2022/06/01 08:30:40;;;;;;;;;;;;;;;15.97;100.00;101351.16;2613992;31;19946;-62
2022/06/01 08:33:08;;;;;;;;;;;;;;;16.67;100.00;101347.44;2613278;36;19954;-58
2022/06/01 08:35:38;;;;;;;;;;;;;;;16.35;100.00;101342.72;2613703;36;19977;-61
2022/06/01 08:38:09;;;;;;;;;;;;;;;16.02;100.00;101359.69;2612957;36;19981;-59
2022/06/01 08:40:41;;;;;;;;;;;;;;;15.33;100.00;101372.16;2613561;36;19950;-61
2022/06/01 08:43:10;;;;;;;;;;;;;;;14.42;100.00;101403.56;2613479;31;19953;-60
2022/06/01 08:45:39;;;;;;;;;;;;;;;13.37;100.00;101420.63;2614246;31;20753;-60
2022/06/01 08:48:08;;;;;;;;;;;;;;;12.81;100.00;101433.72;2613004;31;20446;-59
2022/06/01 08:50:37;;;;;;;;;;;;;;;12.19;100.00;101455.28;2613371;36;20231;-57
2022/06/01 08:53:09;;;;;;;;;;;;;;;11.80;100.00;101459.50;2612949;31;20323;-53
2022/06/01 08:55:43;;;;;;;;;;;;;;;12.01;100.00;101465.81;2612420;36;19950;-56
2022/06/01 08:58:14;;;;;;;;;;;;;;;11.79;100.00;101457.78;2612305;36;20727;-54
2022/06/01 09:00:52;;;;;;;;;;;;;;;11.86;100.00;101427.47;2613175;36;19954;-56
2022/06/01 09:03:26;;;;;;;;;;;;;;;12.06;100.00;101423.09;2612918;36;20386;-57
2022/06/01 09:05:57;;;;;;;;;;;;;;;12.14;100.00;101425.13;2613510;36;19946;-55
2022/06/01 09:08:32;;;;;;;;;;;;;;;12.16;100.00;101416.91;2613647;36;19947;-55
2022/06/01 09:11:07;;;;;;;;;;;;;;;12.49;100.00;101418.50;2614978;36;20550;-57
2022/06/01 09:13:40;;;;;;;;;;;;;;;12.22;100.00;101411.84;2613285;36;19946;-59
2022/06/01 09:16:10;;;;;;;;;;;;;;;12.69;100.00;101413.19;2613077;36;19977;-57
2022/06/01 09:18:40;;;;;;;;;;;;;;;13.59;100.00;101416.81;2612951;36;19950;-57
2022/06/01 09:23:52;;;;;;;;;;;;;;;14.16;100.00;101411.47;2613697;36;19958;-57
2022/06/01 09:26:29;;;;;;;;;;;;;;;15.21;100.00;101393.22;2614046;36;20321;-58
2022/06/01 09:28:58;;;;;;;;;;;;;;;15.22;100.00;101392.19;2613990;36;19979;-59
2022/06/01 09:31:29;;;;;;;;;;;;;;;15.30;100.00;101388.75;2614343;36;20463;-57
2022/06/01 09:34:14;;;;;;;;;;;;;;;15.26;100.00;101390.03;2614063;36;20070;-59
2022/06/01 09:36:50;;;;;;;;;;;;;;;14.32;100.00;101408.16;2614356;36;20001;-60
2022/06/01 09:39:22;;;;;;;;;;;;;;;14.42;100.00;101410.84;2613622;36;19946;-58
2022/06/01 09:41:50;;;;;;;;;;;;;;;14.23;100.00;101409.91;2614842;36;20339;-60
2022/06/01 09:44:21;;;;;;;;;;;;;;;14.37;100.00;101411.31;2613875;31;19957;-59
2022/06/01 09:46:53;;;;;;;;;;;;;;;14.76;100.00;101399.47;2614125;36;19985;-58
2022/06/01 09:49:24;;;;;;;;;;;;;;;15.10;100.00;101394.28;2614159;36;20054;-59
2022/06/01 09:51:56;;;;;;;;;;;;;;;15.33;100.00;101405.53;2614152;36;19973;-63
2022/06/01 09:54:31;;;;;;;;;;;;;;;15.48;100.00;101399.59;2613985;31;20347;-58
2022/06/01 09:57:00;;;;;;;;;;;;;;;15.93;100.00;101382.34;2614321;36;19994;-63
2022/06/01 10:07:40;;;;;;;;;;;;;;;16.10;100.00;101391.44;2614251;36;20174;-58
2022/06/01 10:10:22;;;;;;;;;;;;;;;16.43;100.00;101388.91;2614172;36;19953;-62
2022/06/01 10:12:54;;;;;;;;;;;;;;;16.36;100.00;101390.63;2614173;36;19973;-59
2022/06/01 10:15:27;;;;;;;;;;;;;;;16.64;100.00;101391.25;2613998;36;19951;-60
2022/06/01 10:17:58;;;;;;;;;;;;;;;16.85;100.00;101389.97;2613006;36;19950;-59
2022/06/01 10:20:29;;;;;;;;;;;;;;;16.78;100.00;101382.47;2613986;36;19950;-58
2022/06/01 10:23:00;;;;;;;;;;;;;;;16.22;100.00;101394.75;2613572;36;19958;-59
2022/06/01 10:25:34;;;;;;;;;;;;;;;16.16;100.00;101387.25;2614068;31;19954;-60
2022/06/01 10:28:06;;;;;;;;;;;;;;;15.89;100.00;101395.38;2612992;36;19947;-60
2022/06/01 10:30:35;;;;;;;;;;;;;;;15.76;100.00;101401.19;2612740;36;19950;-62
2022/06/01 10:33:05;;;;;;;;;;;;;;;16.34;100.00;101398.06;2613028;36;20462;-64
2022/06/01 10:35:37;;;;;;;;;;;;;;;17.09;100.00;101384.66;2613163;36;19950;-60
2022/06/01 10:38:10;;;;;;;;;;;;;;;17.30;100.00;101391.50;2612084;36;19946;-59
2022/06/01 10:40:43;;;;;;;;;;;;;;;17.30;100.00;101386.06;2613080;36;19946;-60
2022/06/01 10:43:21;;;;;;;;;;;;;;;17.66;100.00;101392.00;2613599;36;19946;-61
2022/06/01 10:45:54;;;;;;;;;;;;;;;17.34;100.00;101395.56;2614220;36;19947;-59
2022/06/01 10:48:25;;;;;;;;;;;;;;;17.65;100.00;101389.47;2613231;36;19998;-59
2022/06/01 10:50:58;;;;;;;;;;;;;;;17.84;100.00;101389.16;2614160;36;19954;-61
2022/06/01 10:53:32;;;;;;;;;;;;;;;17.91;100.00;101388.50;2613609;36;19965;-59
2022/06/01 10:56:02;;;;;;;;;;;;;;;17.97;100.00;101393.25;2614166;36;19953;-62
2022/06/01 10:58:32;;;;;;;;;;;;;;;17.38;100.00;101396.94;2613773;36;19954;-59
2022/06/01 11:01:07;;;;;;;;;;;;;;;17.56;100.00;101395.94;2613755;36;20050;-58
2022/06/01 11:03:53;;;;;;;;;;;;;;;18.15;100.00;101402.09;2613913;36;19958;-63
2022/06/01 11:06:30;;;;;;;;;;;;;;;18.37;100.00;101391.44;2613990;36;19958;-60
2022/06/01 11:09:03;;;;;;;;;;;;;;;18.45;100.00;101402.34;2613753;36;19951;-63
2022/06/01 11:11:43;;;;;;;;;;;;;;;18.62;100.00;101380.47;2614393;54;19973;-61
2022/06/01 11:14:15;;;;;;;;;;;;;;;18.54;100.00;101389.53;2613823;36;19957;-60
2022/06/01 11:16:55;;;;;;;;;;;;;;;18.20;100.00;101399.66;2614008;36;20405;-58
2022/06/01 11:19:29;;;;;;;;;;;;;;;18.30;100.00;101398.63;2613387;36;19957;-64
2022/06/01 11:22:03;;;;;;;;;;;;;;;18.69;100.00;101403.28;2613144;36;20456;-62
2022/06/01 11:24:38;;;;;;;;;;;;;;;18.74;100.00;101406.31;2611307;36;19951;-58
2022/06/01 11:27:15;;;;;;;;;;;;;;;18.40;100.00;101410.19;2612943;36;20408;-58
2022/06/01 11:29:53;;;;;;;;;;;;;;;18.63;100.00;101410.28;2612715;36;19980;-61
2022/06/01 11:32:23;;;;;;;;;;;;;;;19.03;100.00;101399.41;2612489;31;19981;-60
2022/06/01 11:34:55;;;;;;;;;;;;;;;19.07;100.00;101395.31;2612789;31;19950;-58
2022/06/01 11:37:27;;;;;;;;;;;;;;;19.24;100.00;101396.91;2612747;36;19950;-58
2022/06/01 11:39:57;;;;;;;;;;;;;;;19.13;100.00;101412.84;2612156;36;20458;-59
2022/06/01 11:42:30;;;;;;;;;;;;;;;18.33;100.00;101417.34;2612504;36;19946;-63
2022/06/01 11:45:01;;;;;;;;;;;;;;;17.85;100.00;101423.50;2612716;36;20515;-63
2022/06/01 11:47:35;;;;;;;;;;;;;;;17.77;100.00;101426.25;2612798;36;19950;-60
2022/06/01 11:50:16;;;;;;;;;;;;;;;17.45;100.00;101427.91;2613683;36;19946;-58
2022/06/01 11:52:47;;;;;;;;;;;;;;;17.65;100.00;101428.44;2612887;36;20554;-59
2022/06/01 11:55:33;;;;;;;;;;;;;;;18.36;100.00;101431.50;2612740;36;19951;-62
2022/06/01 11:58:11;;;;;;;;;;;;;;;19.24;100.00;101428.78;2612490;36;19947;-59
2022/06/01 12:00:42;;;;;;;;;;;;;;;19.38;100.00;101410.81;2613385;36;19951;-59
2022/06/01 12:03:31;;;;;;;;;;;;;;;19.05;100.00;101420.03;2613175;36;19946;-58
2022/06/01 12:06:03;;;;;;;;;;;;;;;18.39;100.00;101419.41;2613491;36;19947;-58
2022/06/01 12:08:33;;;;;;;;;;;;;;;17.85;100.00;101428.09;2612984;31;20517;-63
2022/06/01 12:11:03;;;;;;;;;;;;;;;18.25;100.00;101428.28;2612823;36;19953;-65
2022/06/01 12:13:52;;;;;;;;;;;;;;;18.38;100.00;101431.31;2612508;36;19993;-58
2022/06/01 12:16:22;;;;;;;;;;;;;;;18.09;100.00;101435.44;2612666;36;19954;-59
2022/06/01 12:19:07;;;;;;;;;;;;;;;17.88;100.00;101432.38;2612253;36;19951;-61
2022/06/01 12:21:38;;;;;;;;;;;;;;;17.95;100.00;101442.44;2612955;36;20424;-62
2022/06/01 12:30:00;;;;;;;;;;;;;;;17.38;100.00;101451.34;2612534;36;19951;-62
2022/06/01 12:32:29;;;;;;;;;;;;;;;18.02;100.00;101453.47;2613115;36;19951;-59
2022/06/01 12:35:05;;;;;;;;;;;;;;;17.50;100.00;101441.88;2614042;31;20447;-62
2022/06/01 12:37:39;;;;;;;;;;;;;;;17.41;100.00;101447.47;2614813;36;19951;-60
2022/06/01 12:40:13;;;;;;;;;;;;;;;17.62;100.00;101449.69;2614701;36;19955;-59
2022/06/01 12:42:43;;;;;;;;;;;;;;;17.23;100.00;101455.75;2615781;31;20344;-64
2022/06/01 12:45:18;;;;;;;;;;;;;;;17.47;100.00;101449.50;2614916;36;19978;-59
2022/06/01 12:47:53;;;;;;;;;;;;;;;17.58;100.00;101460.06;2615421;31;19954;-59
2022/06/01 12:50:24;;;;;;;;;;;;;;;17.52;100.00;101456.16;2617080;36;20312;-62
2022/06/01 12:53:10;;;;;;;;;;;;;;;17.47;100.00;101463.94;2616026;36;20015;-59
2022/06/01 12:55:38;;;;;;;;;;;;;;;17.26;100.00;101467.13;2615629;36;19954;-59
2022/06/01 12:58:11;;;;;;;;;;;;;;;17.04;100.00;101460.44;2615374;36;19953;-59
2022/06/01 13:00:46;;;;;;;;;;;;;;;17.29;100.00;101468.69;2615058;36;19963;-59
2022/06/01 13:03:15;;;;;;;;;;;;;;;16.99;100.00;101479.13;2614560;36;19978;-63
2022/06/01 13:05:46;;;;;;;;;;;;;;;16.54;100.00;101467.44;2615613;36;19958;-65
2022/06/01 13:08:18;;;;;;;;;;;;;;;16.34;100.00;101476.81;2614516;36;20535;-59
2022/06/01 13:10:46;;;;;;;;;;;;;;;16.51;100.00;101488.69;2614823;36;19950;-61
2022/06/01 13:13:16;;;;;;;;;;;;;;;16.26;100.00;101481.19;2614679;36;19951;-62
2022/06/01 13:15:55;;;;;;;;;;;;;;;16.48;100.00;101494.44;2615214;31;20506;-63
2022/06/01 13:18:29;;;;;;;;;;;;;;;16.29;100.00;101493.59;2614177;36;19971;-61